sensor_id;sensor_type;location;lat;lon;timestamp;temperature;humidity
65038;DHT22;51605;47.040;15.294;2023-04-15T00:02:13;20.80;53.90
65038;DHT22;51605;47.040;15.294;2023-04-15T00:04:38;20.80;53.90
65038;DHT22;51605;47.040;15.294;2023-04-15T00:07:04;20.80;53.90
65038;DHT22;51605;47.040;15.294;2023-04-15T00:09:29;20.90;53.90
65038;DHT22;51605;47.040;15.294;2023-04-15T00:11:55;20.90;53.90
65038;DHT22;51605;47.040;15.294;2023-04-15T00:14:21;20.90;53.90
65038;DHT22;51605;47.040;15.294;2023-04-15T00:16:47;20.90;53.90
65038;DHT22;51605;47.040;15.294;2023-04-15T00:19:19;20.80;53.90
65038;DHT22;51605;47.040;15.294;2023-04-15T00:21:45;20.80;53.90
65038;DHT22;51605;47.040;15.294;2023-04-15T00:24:10;20.90;53.90
65038;DHT22;51605;47.040;15.294;2023-04-15T00:26:36;20.80;53.90
65038;DHT22;51605;47.040;15.294;2023-04-15T00:29:01;20.80;53.90
65038;DHT22;51605;47.040;15.294;2023-04-15T00:31:27;20.90;53.90
65038;DHT22;51605;47.040;15.294;2023-04-15T00:33:52;20.90;53.90
65038;DHT22;51605;47.040;15.294;2023-04-15T00:36:18;20.80;53.90
65038;DHT22;51605;47.040;15.294;2023-04-15T00:38:43;20.80;53.90
65038;DHT22;51605;47.040;15.294;2023-04-15T00:41:09;20.80;53.90
65038;DHT22;51605;47.040;15.294;2023-04-15T00:43:35;20.80;53.90
65038;DHT22;51605;47.040;15.294;2023-04-15T00:46:00;20.90;53.90
65038;DHT22;51605;47.040;15.294;2023-04-15T00:48:28;20.80;53.90
65038;DHT22;51605;47.040;15.294;2023-04-15T00:50:54;20.80;53.90
65038;DHT22;51605;47.040;15.294;2023-04-15T00:53:19;20.80;53.90
65038;DHT22;51605;47.040;15.294;2023-04-15T00:55:45;20.80;53.90
65038;DHT22;51605;47.040;15.294;2023-04-15T00:58:10;20.80;53.90
65038;DHT22;51605;47.040;15.294;2023-04-15T01:00:36;20.80;53.90
65038;DHT22;51605;47.040;15.294;2023-04-15T01:03:01;20.80;53.90
65038;DHT22;51605;47.040;15.294;2023-04-15T01:05:27;20.80;53.90
65038;DHT22;51605;47.040;15.294;2023-04-15T01:07:53;20.80;53.90
65038;DHT22;51605;47.040;15.294;2023-04-15T01:10:19;20.80;53.90
65038;DHT22;51605;47.040;15.294;2023-04-15T01:12:45;20.90;53.90
65038;DHT22;51605;47.040;15.294;2023-04-15T01:15:11;20.80;54.00
65038;DHT22;51605;47.040;15.294;2023-04-15T01:17:36;20.80;53.90
65038;DHT22;51605;47.040;15.294;2023-04-15T01:20:02;20.80;53.90
65038;DHT22;51605;47.040;15.294;2023-04-15T01:22:29;20.80;53.90
65038;DHT22;51605;47.040;15.294;2023-04-15T01:25:16;20.80;53.90
65038;DHT22;51605;47.040;15.294;2023-04-15T01:27:42;20.90;53.90
65038;DHT22;51605;47.040;15.294;2023-04-15T01:30:08;20.80;53.80
65038;DHT22;51605;47.040;15.294;2023-04-15T01:32:35;20.90;53.90
65038;DHT22;51605;47.040;15.294;2023-04-15T01:35:00;20.90;53.90
65038;DHT22;51605;47.040;15.294;2023-04-15T01:37:26;20.90;53.90
65038;DHT22;51605;47.040;15.294;2023-04-15T01:39:51;20.90;53.80
65038;DHT22;51605;47.040;15.294;2023-04-15T01:42:17;20.90;53.80
65038;DHT22;51605;47.040;15.294;2023-04-15T01:44:43;20.90;53.90
65038;DHT22;51605;47.040;15.294;2023-04-15T01:47:08;20.90;53.80
65038;DHT22;51605;47.040;15.294;2023-04-15T01:49:34;20.90;53.90
65038;DHT22;51605;47.040;15.294;2023-04-15T01:51:59;20.80;53.90
65038;DHT22;51605;47.040;15.294;2023-04-15T01:54:25;20.80;53.90
65038;DHT22;51605;47.040;15.294;2023-04-15T01:56:51;20.80;53.80
65038;DHT22;51605;47.040;15.294;2023-04-15T01:59:17;20.80;53.90
65038;DHT22;51605;47.040;15.294;2023-04-15T02:01:43;20.80;53.90
65038;DHT22;51605;47.040;15.294;2023-04-15T02:04:09;20.80;53.90
65038;DHT22;51605;47.040;15.294;2023-04-15T02:06:43;20.80;53.90
65038;DHT22;51605;47.040;15.294;2023-04-15T02:09:09;20.80;53.90
65038;DHT22;51605;47.040;15.294;2023-04-15T02:11:35;20.80;53.90
65038;DHT22;51605;47.040;15.294;2023-04-15T02:14:01;20.80;53.90
65038;DHT22;51605;47.040;15.294;2023-04-15T02:16:28;20.80;53.90
65038;DHT22;51605;47.040;15.294;2023-04-15T02:18:53;20.80;53.90
65038;DHT22;51605;47.040;15.294;2023-04-15T02:21:19;20.80;53.90
65038;DHT22;51605;47.040;15.294;2023-04-15T02:23:44;20.80;53.80
65038;DHT22;51605;47.040;15.294;2023-04-15T02:26:12;20.80;53.80
65038;DHT22;51605;47.040;15.294;2023-04-15T02:28:38;20.80;53.90
65038;DHT22;51605;47.040;15.294;2023-04-15T02:31:06;20.80;53.80
65038;DHT22;51605;47.040;15.294;2023-04-15T02:33:32;20.90;53.80
65038;DHT22;51605;47.040;15.294;2023-04-15T02:35:58;20.90;53.80
65038;DHT22;51605;47.040;15.294;2023-04-15T02:38:23;20.90;53.80
65038;DHT22;51605;47.040;15.294;2023-04-15T02:40:49;20.90;53.80
65038;DHT22;51605;47.040;15.294;2023-04-15T02:43:15;20.90;53.70
65038;DHT22;51605;47.040;15.294;2023-04-15T02:45:44;20.90;53.80
65038;DHT22;51605;47.040;15.294;2023-04-15T02:48:10;20.80;53.70
65038;DHT22;51605;47.040;15.294;2023-04-15T02:50:35;20.90;53.80
65038;DHT22;51605;47.040;15.294;2023-04-15T02:53:03;20.80;53.80
65038;DHT22;51605;47.040;15.294;2023-04-15T02:55:30;20.80;53.70
65038;DHT22;51605;47.040;15.294;2023-04-15T02:57:55;20.90;53.80
65038;DHT22;51605;47.040;15.294;2023-04-15T03:00:22;20.80;53.70
65038;DHT22;51605;47.040;15.294;2023-04-15T03:02:49;20.80;53.80
65038;DHT22;51605;47.040;15.294;2023-04-15T03:05:20;20.80;53.80
65038;DHT22;51605;47.040;15.294;2023-04-15T03:07:48;20.80;53.70
65038;DHT22;51605;47.040;15.294;2023-04-15T03:10:14;20.80;53.80
65038;DHT22;51605;47.040;15.294;2023-04-15T03:12:40;20.80;53.90
65038;DHT22;51605;47.040;15.294;2023-04-15T03:15:05;20.80;53.80
65038;DHT22;51605;47.040;15.294;2023-04-15T03:17:31;20.80;53.80
65038;DHT22;51605;47.040;15.294;2023-04-15T03:19:57;20.80;53.80
65038;DHT22;51605;47.040;15.294;2023-04-15T03:22:22;20.80;53.80
65038;DHT22;51605;47.040;15.294;2023-04-15T03:24:48;20.80;53.70
65038;DHT22;51605;47.040;15.294;2023-04-15T03:27:13;20.80;53.80
65038;DHT22;51605;47.040;15.294;2023-04-15T03:29:39;20.80;53.90
65038;DHT22;51605;47.040;15.294;2023-04-15T03:32:04;20.80;53.80
65038;DHT22;51605;47.040;15.294;2023-04-15T03:34:30;20.80;53.80
65038;DHT22;51605;47.040;15.294;2023-04-15T03:36:55;20.90;53.70
65038;DHT22;51605;47.040;15.294;2023-04-15T03:39:21;20.80;53.70
65038;DHT22;51605;47.040;15.294;2023-04-15T03:41:46;20.80;53.70
65038;DHT22;51605;47.040;15.294;2023-04-15T03:44:12;20.80;53.70
65038;DHT22;51605;47.040;15.294;2023-04-15T03:46:37;20.80;53.90
65038;DHT22;51605;47.040;15.294;2023-04-15T03:49:05;20.80;53.80
65038;DHT22;51605;47.040;15.294;2023-04-15T03:51:30;20.80;53.80
65038;DHT22;51605;47.040;15.294;2023-04-15T03:53:56;20.80;53.80
65038;DHT22;51605;47.040;15.294;2023-04-15T03:56:23;20.80;53.80
65038;DHT22;51605;47.040;15.294;2023-04-15T03:58:48;20.80;53.80
65038;DHT22;51605;47.040;15.294;2023-04-15T04:01:14;20.80;53.70
65038;DHT22;51605;47.040;15.294;2023-04-15T04:03:40;20.80;53.70
65038;DHT22;51605;47.040;15.294;2023-04-15T04:06:06;20.80;53.70
65038;DHT22;51605;47.040;15.294;2023-04-15T04:08:32;20.80;53.70
65038;DHT22;51605;47.040;15.294;2023-04-15T04:10:57;20.90;53.80
65038;DHT22;51605;47.040;15.294;2023-04-15T04:13:23;20.80;53.70
65038;DHT22;51605;47.040;15.294;2023-04-15T04:15:48;20.80;53.70
65038;DHT22;51605;47.040;15.294;2023-04-15T04:18:14;20.80;53.70
65038;DHT22;51605;47.040;15.294;2023-04-15T04:20:40;20.80;53.70
65038;DHT22;51605;47.040;15.294;2023-04-15T04:23:06;20.80;53.70
65038;DHT22;51605;47.040;15.294;2023-04-15T04:25:31;20.80;53.70
65038;DHT22;51605;47.040;15.294;2023-04-15T04:27:57;20.80;53.70
65038;DHT22;51605;47.040;15.294;2023-04-15T04:30:23;20.80;53.70
65038;DHT22;51605;47.040;15.294;2023-04-15T04:32:48;20.90;53.70
65038;DHT22;51605;47.040;15.294;2023-04-15T04:35:14;20.90;53.70
65038;DHT22;51605;47.040;15.294;2023-04-15T04:37:40;20.80;53.70
65038;DHT22;51605;47.040;15.294;2023-04-15T04:40:06;20.80;53.70
65038;DHT22;51605;47.040;15.294;2023-04-15T04:42:32;20.80;53.70
65038;DHT22;51605;47.040;15.294;2023-04-15T04:44:57;20.80;53.70
65038;DHT22;51605;47.040;15.294;2023-04-15T04:47:23;20.80;53.70
65038;DHT22;51605;47.040;15.294;2023-04-15T04:49:48;20.80;53.70
65038;DHT22;51605;47.040;15.294;2023-04-15T04:52:14;20.80;53.70
65038;DHT22;51605;47.040;15.294;2023-04-15T04:54:40;20.80;53.70
65038;DHT22;51605;47.040;15.294;2023-04-15T04:57:05;20.90;53.70
65038;DHT22;51605;47.040;15.294;2023-04-15T04:59:32;20.90;53.70
65038;DHT22;51605;47.040;15.294;2023-04-15T05:01:57;20.90;53.70
65038;DHT22;51605;47.040;15.294;2023-04-15T05:04:23;20.80;53.60
65038;DHT22;51605;47.040;15.294;2023-04-15T05:06:48;20.90;53.70
65038;DHT22;51605;47.040;15.294;2023-04-15T05:09:14;20.90;53.70
65038;DHT22;51605;47.040;15.294;2023-04-15T05:11:40;20.90;53.70
65038;DHT22;51605;47.040;15.294;2023-04-15T05:14:05;20.90;53.60
65038;DHT22;51605;47.040;15.294;2023-04-15T05:16:31;20.90;53.70
65038;DHT22;51605;47.040;15.294;2023-04-15T05:18:56;20.90;53.70
65038;DHT22;51605;47.040;15.294;2023-04-15T05:21:22;20.90;53.70
65038;DHT22;51605;47.040;15.294;2023-04-15T05:23:47;20.90;53.70
65038;DHT22;51605;47.040;15.294;2023-04-15T05:26:13;20.90;53.70
65038;DHT22;51605;47.040;15.294;2023-04-15T05:28:38;20.90;53.70
65038;DHT22;51605;47.040;15.294;2023-04-15T05:31:04;20.80;53.70
65038;DHT22;51605;47.040;15.294;2023-04-15T05:33:31;20.80;53.70
65038;DHT22;51605;47.040;15.294;2023-04-15T05:35:57;20.80;53.70
65038;DHT22;51605;47.040;15.294;2023-04-15T05:38:22;20.80;53.70
65038;DHT22;51605;47.040;15.294;2023-04-15T05:40:48;20.80;53.70
65038;DHT22;51605;47.040;15.294;2023-04-15T05:43:13;20.80;53.70
65038;DHT22;51605;47.040;15.294;2023-04-15T05:45:39;20.80;53.70
65038;DHT22;51605;47.040;15.294;2023-04-15T05:48:04;20.80;53.70
65038;DHT22;51605;47.040;15.294;2023-04-15T05:50:30;20.80;53.70
65038;DHT22;51605;47.040;15.294;2023-04-15T05:52:55;20.90;53.70
65038;DHT22;51605;47.040;15.294;2023-04-15T05:55:21;20.80;53.60
65038;DHT22;51605;47.040;15.294;2023-04-15T05:57:46;20.80;53.70
65038;DHT22;51605;47.040;15.294;2023-04-15T06:00:12;20.80;53.70
65038;DHT22;51605;47.040;15.294;2023-04-15T06:02:38;20.80;53.70
65038;DHT22;51605;47.040;15.294;2023-04-15T06:05:04;20.80;53.70
65038;DHT22;51605;47.040;15.294;2023-04-15T06:07:36;20.80;53.70
65038;DHT22;51605;47.040;15.294;2023-04-15T06:10:02;20.80;53.70
65038;DHT22;51605;47.040;15.294;2023-04-15T06:12:28;20.90;53.70
65038;DHT22;51605;47.040;15.294;2023-04-15T06:14:53;20.80;53.70
65038;DHT22;51605;47.040;15.294;2023-04-15T06:17:19;20.80;53.70
65038;DHT22;51605;47.040;15.294;2023-04-15T06:19:44;20.80;53.70
65038;DHT22;51605;47.040;15.294;2023-04-15T06:22:10;20.80;53.60
65038;DHT22;51605;47.040;15.294;2023-04-15T06:24:35;20.80;53.70
65038;DHT22;51605;47.040;15.294;2023-04-15T06:27:01;20.80;53.70
65038;DHT22;51605;47.040;15.294;2023-04-15T06:29:27;20.80;53.70
65038;DHT22;51605;47.040;15.294;2023-04-15T06:31:53;20.80;53.70
65038;DHT22;51605;47.040;15.294;2023-04-15T06:34:18;20.80;53.60
65038;DHT22;51605;47.040;15.294;2023-04-15T06:36:44;20.80;53.60
65038;DHT22;51605;47.040;15.294;2023-04-15T06:39:09;20.80;53.70
65038;DHT22;51605;47.040;15.294;2023-04-15T06:41:35;20.80;53.70
65038;DHT22;51605;47.040;15.294;2023-04-15T06:44:01;20.80;53.70
65038;DHT22;51605;47.040;15.294;2023-04-15T06:46:26;20.80;53.70
65038;DHT22;51605;47.040;15.294;2023-04-15T06:48:52;20.80;53.70
65038;DHT22;51605;47.040;15.294;2023-04-15T06:51:17;20.80;53.70
65038;DHT22;51605;47.040;15.294;2023-04-15T06:53:43;20.80;53.80
65038;DHT22;51605;47.040;15.294;2023-04-15T06:56:09;20.80;53.80
65038;DHT22;51605;47.040;15.294;2023-04-15T06:58:34;20.80;53.80
65038;DHT22;51605;47.040;15.294;2023-04-15T07:01:00;20.80;53.90
65038;DHT22;51605;47.040;15.294;2023-04-15T07:03:26;20.80;53.80
65038;DHT22;51605;47.040;15.294;2023-04-15T07:05:51;20.80;53.70
65038;DHT22;51605;47.040;15.294;2023-04-15T07:08:18;20.80;53.80
65038;DHT22;51605;47.040;15.294;2023-04-15T07:10:44;20.80;53.70
65038;DHT22;51605;47.040;15.294;2023-04-15T07:13:10;20.80;53.90
65038;DHT22;51605;47.040;15.294;2023-04-15T07:15:36;20.80;53.90
65038;DHT22;51605;47.040;15.294;2023-04-15T07:18:01;20.80;53.90
65038;DHT22;51605;47.040;15.294;2023-04-15T07:20:27;20.80;53.80
65038;DHT22;51605;47.040;15.294;2023-04-15T07:22:52;20.80;54.90
65038;DHT22;51605;47.040;15.294;2023-04-15T07:25:18;20.80;53.80
65038;DHT22;51605;47.040;15.294;2023-04-15T07:27:43;20.80;53.90
65038;DHT22;51605;47.040;15.294;2023-04-15T07:30:09;20.80;53.90
65038;DHT22;51605;47.040;15.294;2023-04-15T07:32:35;20.80;53.90
65038;DHT22;51605;47.040;15.294;2023-04-15T07:35:01;20.80;53.90
65038;DHT22;51605;47.040;15.294;2023-04-15T07:37:28;20.80;53.90
65038;DHT22;51605;47.040;15.294;2023-04-15T07:39:54;20.80;53.80
65038;DHT22;51605;47.040;15.294;2023-04-15T07:42:19;20.80;53.80
65038;DHT22;51605;47.040;15.294;2023-04-15T07:44:45;20.80;53.80
65038;DHT22;51605;47.040;15.294;2023-04-15T07:47:11;20.80;53.70
65038;DHT22;51605;47.040;15.294;2023-04-15T07:49:36;20.80;53.70
65038;DHT22;51605;47.040;15.294;2023-04-15T07:52:02;20.80;53.80
65038;DHT22;51605;47.040;15.294;2023-04-15T07:54:28;20.80;53.80
65038;DHT22;51605;47.040;15.294;2023-04-15T07:56:53;20.80;53.80
65038;DHT22;51605;47.040;15.294;2023-04-15T07:59:19;20.80;53.80
65038;DHT22;51605;47.040;15.294;2023-04-15T08:01:45;20.80;53.80
65038;DHT22;51605;47.040;15.294;2023-04-15T08:04:10;20.80;53.90
65038;DHT22;51605;47.040;15.294;2023-04-15T08:06:36;20.80;53.90
65038;DHT22;51605;47.040;15.294;2023-04-15T08:09:04;20.80;54.00
65038;DHT22;51605;47.040;15.294;2023-04-15T08:11:29;20.80;53.80
65038;DHT22;51605;47.040;15.294;2023-04-15T08:13:55;20.80;53.80
65038;DHT22;51605;47.040;15.294;2023-04-15T08:16:22;20.80;53.90
65038;DHT22;51605;47.040;15.294;2023-04-15T08:18:49;20.80;53.90
65038;DHT22;51605;47.040;15.294;2023-04-15T08:21:15;20.80;53.80
65038;DHT22;51605;47.040;15.294;2023-04-15T08:23:41;20.80;53.90
65038;DHT22;51605;47.040;15.294;2023-04-15T08:26:07;20.80;53.80
65038;DHT22;51605;47.040;15.294;2023-04-15T08:28:33;20.80;54.00
65038;DHT22;51605;47.040;15.294;2023-04-15T08:30:58;20.80;53.90
65038;DHT22;51605;47.040;15.294;2023-04-15T08:33:24;20.80;53.90
65038;DHT22;51605;47.040;15.294;2023-04-15T08:35:49;20.80;53.90
65038;DHT22;51605;47.040;15.294;2023-04-15T08:38:15;20.80;53.90
65038;DHT22;51605;47.040;15.294;2023-04-15T08:40:42;20.80;53.90
65038;DHT22;51605;47.040;15.294;2023-04-15T08:43:20;20.80;53.90
65038;DHT22;51605;47.040;15.294;2023-04-15T08:45:49;20.80;53.90
65038;DHT22;51605;47.040;15.294;2023-04-15T08:48:16;20.80;53.90
65038;DHT22;51605;47.040;15.294;2023-04-15T08:50:42;20.80;53.90
65038;DHT22;51605;47.040;15.294;2023-04-15T08:53:08;20.80;53.90
65038;DHT22;51605;47.040;15.294;2023-04-15T08:55:35;20.80;53.90
65038;DHT22;51605;47.040;15.294;2023-04-15T08:58:01;20.80;53.90
65038;DHT22;51605;47.040;15.294;2023-04-15T09:00:27;20.80;53.80
65038;DHT22;51605;47.040;15.294;2023-04-15T09:02:56;20.80;54.80
65038;DHT22;51605;47.040;15.294;2023-04-15T09:05:23;20.80;53.90
65038;DHT22;51605;47.040;15.294;2023-04-15T09:07:51;20.80;53.90
65038;DHT22;51605;47.040;15.294;2023-04-15T09:10:17;20.80;53.90
65038;DHT22;51605;47.040;15.294;2023-04-15T09:12:42;20.80;53.90
65038;DHT22;51605;47.040;15.294;2023-04-15T09:15:11;20.80;53.90
65038;DHT22;51605;47.040;15.294;2023-04-15T09:17:45;20.80;53.90
65038;DHT22;51605;47.040;15.294;2023-04-15T09:20:12;20.80;53.90
65038;DHT22;51605;47.040;15.294;2023-04-15T09:22:42;20.80;53.90
65038;DHT22;51605;47.040;15.294;2023-04-15T09:27:49;20.80;53.90
65038;DHT22;51605;47.040;15.294;2023-04-15T09:30:15;20.80;53.80
65038;DHT22;51605;47.040;15.294;2023-04-15T09:32:55;20.80;53.90
65038;DHT22;51605;47.040;15.294;2023-04-15T09:35:21;20.80;53.80
65038;DHT22;51605;47.040;15.294;2023-04-15T09:37:47;20.80;53.70
65038;DHT22;51605;47.040;15.294;2023-04-15T09:40:13;20.80;53.80
65038;DHT22;51605;47.040;15.294;2023-04-15T09:42:54;20.80;53.70
65038;DHT22;51605;47.040;15.294;2023-04-15T09:45:22;20.80;53.70
65038;DHT22;51605;47.040;15.294;2023-04-15T09:47:47;20.80;53.70
65038;DHT22;51605;47.040;15.294;2023-04-15T09:50:15;20.80;53.70
65038;DHT22;51605;47.040;15.294;2023-04-15T09:52:41;20.80;53.70
65038;DHT22;51605;47.040;15.294;2023-04-15T09:55:07;20.80;53.60
65038;DHT22;51605;47.040;15.294;2023-04-15T09:57:34;20.80;53.60
65038;DHT22;51605;47.040;15.294;2023-04-15T10:00:01;20.80;53.50
65038;DHT22;51605;47.040;15.294;2023-04-15T10:02:27;20.80;54.40
65038;DHT22;51605;47.040;15.294;2023-04-15T10:04:53;20.70;55.00
65038;DHT22;51605;47.040;15.294;2023-04-15T10:07:19;20.80;55.40
65038;DHT22;51605;47.040;15.294;2023-04-15T10:09:47;20.80;55.70
65038;DHT22;51605;47.040;15.294;2023-04-15T10:12:14;20.80;56.00
65038;DHT22;51605;47.040;15.294;2023-04-15T10:14:42;20.90;56.10
65038;DHT22;51605;47.040;15.294;2023-04-15T10:17:11;20.90;56.40
65038;DHT22;51605;47.040;15.294;2023-04-15T10:19:39;20.90;56.50
65038;DHT22;51605;47.040;15.294;2023-04-15T10:22:05;20.80;56.30
65038;DHT22;51605;47.040;15.294;2023-04-15T10:24:31;20.80;56.50
65038;DHT22;51605;47.040;15.294;2023-04-15T10:26:57;20.80;56.70
65038;DHT22;51605;47.040;15.294;2023-04-15T10:29:24;20.80;56.80
65038;DHT22;51605;47.040;15.294;2023-04-15T10:31:50;20.80;56.80
65038;DHT22;51605;47.040;15.294;2023-04-15T10:34:16;20.80;56.30
65038;DHT22;51605;47.040;15.294;2023-04-15T10:36:42;20.90;55.70
65038;DHT22;51605;47.040;15.294;2023-04-15T10:39:53;20.90;55.20
65038;DHT22;51605;47.040;15.294;2023-04-15T10:42:07;20.90;55.10
65038;DHT22;51605;47.040;15.294;2023-04-15T10:44:32;20.90;54.90
65038;DHT22;51605;47.040;15.294;2023-04-15T10:46:58;20.90;54.70
65038;DHT22;51605;47.040;15.294;2023-04-15T10:49:24;20.90;54.60
65038;DHT22;51605;47.040;15.294;2023-04-15T10:51:50;20.90;54.60
65038;DHT22;51605;47.040;15.294;2023-04-15T10:54:30;20.90;54.50
65038;DHT22;51605;47.040;15.294;2023-04-15T10:59:28;20.90;54.40
65038;DHT22;51605;47.040;15.294;2023-04-15T11:01:54;20.90;54.50
65038;DHT22;51605;47.040;15.294;2023-04-15T11:07:08;20.90;54.30
65038;DHT22;51605;47.040;15.294;2023-04-15T11:09:34;20.90;54.30
65038;DHT22;51605;47.040;15.294;2023-04-15T11:12:06;20.90;54.30
65038;DHT22;51605;47.040;15.294;2023-04-15T11:14:33;20.90;54.30
65038;DHT22;51605;47.040;15.294;2023-04-15T11:17:00;20.90;54.20
65038;DHT22;51605;47.040;15.294;2023-04-15T11:19:25;20.90;54.20
65038;DHT22;51605;47.040;15.294;2023-04-15T11:21:51;20.90;54.10
65038;DHT22;51605;47.040;15.294;2023-04-15T11:24:26;20.90;54.20
65038;DHT22;51605;47.040;15.294;2023-04-15T11:26:58;20.90;54.10
65038;DHT22;51605;47.040;15.294;2023-04-15T11:29:33;20.90;54.10
65038;DHT22;51605;47.040;15.294;2023-04-15T11:32:05;20.90;55.00
65038;DHT22;51605;47.040;15.294;2023-04-15T11:34:31;20.90;54.10
65038;DHT22;51605;47.040;15.294;2023-04-15T11:36:57;20.90;54.10
65038;DHT22;51605;47.040;15.294;2023-04-15T11:39:22;20.80;54.00
65038;DHT22;51605;47.040;15.294;2023-04-15T11:41:48;20.90;54.00
65038;DHT22;51605;47.040;15.294;2023-04-15T11:44:16;20.90;53.90
65038;DHT22;51605;47.040;15.294;2023-04-15T11:46:42;20.90;53.90
65038;DHT22;51605;47.040;15.294;2023-04-15T11:49:07;20.90;53.80
65038;DHT22;51605;47.040;15.294;2023-04-15T11:51:33;20.90;53.90
65038;DHT22;51605;47.040;15.294;2023-04-15T11:53:59;20.90;53.90
65038;DHT22;51605;47.040;15.294;2023-04-15T11:56:25;20.90;53.90
65038;DHT22;51605;47.040;15.294;2023-04-15T11:58:52;20.80;53.90
65038;DHT22;51605;47.040;15.294;2023-04-15T12:01:18;20.90;53.90
65038;DHT22;51605;47.040;15.294;2023-04-15T12:03:46;20.90;53.90
65038;DHT22;51605;47.040;15.294;2023-04-15T12:06:22;20.90;53.90
65038;DHT22;51605;47.040;15.294;2023-04-15T12:11:26;20.90;53.80
65038;DHT22;51605;47.040;15.294;2023-04-15T12:13:56;20.90;53.80
65038;DHT22;51605;47.040;15.294;2023-04-15T12:16:22;20.80;53.70
65038;DHT22;51605;47.040;15.294;2023-04-15T12:18:52;20.90;53.90
65038;DHT22;51605;47.040;15.294;2023-04-15T12:21:21;20.80;53.70
65038;DHT22;51605;47.040;15.294;2023-04-15T12:23:47;20.90;53.80
65038;DHT22;51605;47.040;15.294;2023-04-15T12:26:14;20.90;53.80
65038;DHT22;51605;47.040;15.294;2023-04-15T12:28:39;20.90;53.70
65038;DHT22;51605;47.040;15.294;2023-04-15T12:31:06;20.80;53.70
65038;DHT22;51605;47.040;15.294;2023-04-15T12:33:33;20.90;53.80
65038;DHT22;51605;47.040;15.294;2023-04-15T12:35:59;20.90;53.80
65038;DHT22;51605;47.040;15.294;2023-04-15T12:38:24;20.80;53.60
65038;DHT22;51605;47.040;15.294;2023-04-15T12:40:50;20.80;53.60
65038;DHT22;51605;47.040;15.294;2023-04-15T12:43:15;20.90;53.70
65038;DHT22;51605;47.040;15.294;2023-04-15T12:45:41;20.80;53.60
65038;DHT22;51605;47.040;15.294;2023-04-15T12:48:07;20.90;53.70
65038;DHT22;51605;47.040;15.294;2023-04-15T12:50:34;20.90;53.70
65038;DHT22;51605;47.040;15.294;2023-04-15T12:52:59;20.90;53.90
65038;DHT22;51605;47.040;15.294;2023-04-15T12:55:25;20.90;53.70
65038;DHT22;51605;47.040;15.294;2023-04-15T12:57:50;21.00;53.60
65038;DHT22;51605;47.040;15.294;2023-04-15T13:00:16;21.10;53.50
65038;DHT22;51605;47.040;15.294;2023-04-15T13:02:42;21.20;53.30
65038;DHT22;51605;47.040;15.294;2023-04-15T13:05:08;21.20;53.20
65038;DHT22;51605;47.040;15.294;2023-04-15T13:07:33;21.40;53.20
65038;DHT22;51605;47.040;15.294;2023-04-15T13:10:01;21.50;52.70
65038;DHT22;51605;47.040;15.294;2023-04-15T13:12:34;21.60;52.40
65038;DHT22;51605;47.040;15.294;2023-04-15T13:15:03;21.70;52.10
65038;DHT22;51605;47.040;15.294;2023-04-15T13:17:29;21.90;51.90
65038;DHT22;51605;47.040;15.294;2023-04-15T13:19:54;22.00;51.50
65038;DHT22;51605;47.040;15.294;2023-04-15T13:22:20;22.10;51.30
65038;DHT22;51605;47.040;15.294;2023-04-15T13:24:45;22.10;51.00
65038;DHT22;51605;47.040;15.294;2023-04-15T13:27:11;22.20;50.80
65038;DHT22;51605;47.040;15.294;2023-04-15T13:29:36;22.20;50.60
65038;DHT22;51605;47.040;15.294;2023-04-15T13:32:02;22.30;50.60
65038;DHT22;51605;47.040;15.294;2023-04-15T13:34:28;22.30;51.00
65038;DHT22;51605;47.040;15.294;2023-04-15T13:36:54;22.40;51.40
65038;DHT22;51605;47.040;15.294;2023-04-15T13:39:19;22.50;51.50
65038;DHT22;51605;47.040;15.294;2023-04-15T13:41:45;22.60;51.60
65038;DHT22;51605;47.040;15.294;2023-04-15T13:44:12;22.60;51.40
65038;DHT22;51605;47.040;15.294;2023-04-15T13:46:39;22.60;51.20
65038;DHT22;51605;47.040;15.294;2023-04-15T13:49:06;22.70;50.90
65038;DHT22;51605;47.040;15.294;2023-04-15T13:51:31;22.80;50.70
65038;DHT22;51605;47.040;15.294;2023-04-15T13:53:57;22.80;50.50
65038;DHT22;51605;47.040;15.294;2023-04-15T13:56:22;22.70;50.70
65038;DHT22;51605;47.040;15.294;2023-04-15T13:58:48;22.60;51.00
65038;DHT22;51605;47.040;15.294;2023-04-15T14:01:14;22.70;50.80
65038;DHT22;51605;47.040;15.294;2023-04-15T14:03:39;22.70;50.50
65038;DHT22;51605;47.040;15.294;2023-04-15T14:06:05;22.80;50.20
65038;DHT22;51605;47.040;15.294;2023-04-15T14:08:31;22.80;50.20
65038;DHT22;51605;47.040;15.294;2023-04-15T14:10:56;22.80;50.20
65038;DHT22;51605;47.040;15.294;2023-04-15T14:13:22;22.90;50.30
65038;DHT22;51605;47.040;15.294;2023-04-15T14:15:47;22.80;50.10
65038;DHT22;51605;47.040;15.294;2023-04-15T14:18:13;22.80;50.10
65038;DHT22;51605;47.040;15.294;2023-04-15T14:20:38;22.80;50.00
65038;DHT22;51605;47.040;15.294;2023-04-15T14:23:04;22.80;50.00
65038;DHT22;51605;47.040;15.294;2023-04-15T14:25:30;22.80;49.80
65038;DHT22;51605;47.040;15.294;2023-04-15T14:27:55;22.80;49.80
65038;DHT22;51605;47.040;15.294;2023-04-15T14:30:21;22.80;49.80
65038;DHT22;51605;47.040;15.294;2023-04-15T14:32:46;22.80;49.90
65038;DHT22;51605;47.040;15.294;2023-04-15T14:35:12;22.80;49.70
65038;DHT22;51605;47.040;15.294;2023-04-15T14:37:37;22.80;49.70
65038;DHT22;51605;47.040;15.294;2023-04-15T14:40:03;22.80;49.70
65038;DHT22;51605;47.040;15.294;2023-04-15T14:42:28;22.80;49.70
65038;DHT22;51605;47.040;15.294;2023-04-15T14:44:54;22.80;49.70
65038;DHT22;51605;47.040;15.294;2023-04-15T14:47:19;22.80;49.70
65038;DHT22;51605;47.040;15.294;2023-04-15T14:49:45;22.80;49.70
65038;DHT22;51605;47.040;15.294;2023-04-15T14:52:11;22.80;49.70
65038;DHT22;51605;47.040;15.294;2023-04-15T14:54:36;22.80;49.80
65038;DHT22;51605;47.040;15.294;2023-04-15T14:57:02;22.80;49.70
65038;DHT22;51605;47.040;15.294;2023-04-15T14:59:27;22.80;49.70
65038;DHT22;51605;47.040;15.294;2023-04-15T15:01:53;22.80;49.70
65038;DHT22;51605;47.040;15.294;2023-04-15T15:04:18;22.80;49.70
65038;DHT22;51605;47.040;15.294;2023-04-15T15:06:44;22.80;49.70
65038;DHT22;51605;47.040;15.294;2023-04-15T15:09:09;22.80;49.70
65038;DHT22;51605;47.040;15.294;2023-04-15T15:11:35;22.80;49.70
65038;DHT22;51605;47.040;15.294;2023-04-15T15:14:01;22.80;49.70
65038;DHT22;51605;47.040;15.294;2023-04-15T15:16:26;22.80;49.60
65038;DHT22;51605;47.040;15.294;2023-04-15T15:18:52;22.80;49.70
65038;DHT22;51605;47.040;15.294;2023-04-15T15:21:17;22.90;49.60